Martine P — 2FIL4 — position and weather

sailwx.info

Track history (hours):
 
Tides and Currents Weather Stations Pressure Air Temp Water Temp Dewpoint Dewpoint Depression Visibility Wind Speed Wind Dir Waves Ship Positions

Martine P

Last reported at 2016-Aug-27 10:33 UTC. Time now 2016-Aug-27 11:40 UTC.
Position N 51°55' E 004°15'.

Length 27 m; draft 3 m.

Type: Tug. MMSI: 235091541.

Date/timePositionNaut miles runAvg speedWind from/ knotsBaromVisibWave heightAir tempDewpointWater temp
2016-Aug-27 10:33N 51°55' E 004°15'0 0.0
2016-Aug-27 09:33N 51°55' E 004°15'0 0.0
2016-Aug-27 08:34N 51°55' E 004°15'0 0.0
2016-Aug-27 07:34N 51°55' E 004°15'0 0.0
2016-Aug-27 06:33N 51°55' E 004°15'0 0.0
2016-Aug-27 04:34N 51°55' E 004°15'0 0.0
2016-Aug-27 03:34N 51°55' E 004°15'0 0.0
2016-Aug-27 02:34N 51°55' E 004°15'0 0.0
2016-Aug-27 01:34N 51°55' E 004°15'0 0.0
2016-Aug-27 00:33N 51°55' E 004°15'0 0.0
2016-Aug-26 23:33N 51°55' E 004°15'0 0.0
2016-Aug-26 22:34N 51°55' E 004°15'0 0.0
2016-Aug-26 21:33N 51°55' E 004°15'0 0.0
2016-Aug-26 20:34N 51°55' E 004°15'0 0.0
2016-Aug-26 19:33N 51°55' E 004°15'0 0.0
2016-Aug-26 18:33N 51°55' E 004°15'0 0.0
2016-Aug-26 17:33N 51°55' E 004°15'0 0.0
2016-Aug-26 16:34N 51°55' E 004°15'0 0.0
2016-Aug-26 15:33N 51°55' E 004°15'0 0.0
2016-Aug-26 14:33N 51°55' E 004°15'0 0.0
2016-Aug-26 13:34N 51°55' E 004°15'0 0.0
2016-Aug-26 12:34N 51°55' E 004°15'0 0.0
2016-Aug-26 11:34N 51°55' E 004°15'0 0.0
2016-Aug-26 10:33N 51°55' E 004°15'0 0.0
2016-Aug-26 09:34N 51°55' E 004°15'0 0.0
2016-Aug-26 08:33N 51°55' E 004°15'0 0.0
2016-Aug-26 07:34N 51°55' E 004°15'0 0.0
2016-Aug-26 06:34N 51°55' E 004°15'0 0.0
2016-Aug-26 04:33N 51°55' E 004°15'0 0.0
2016-Aug-26 03:34N 51°55' E 004°15'0 0.0
2016-Aug-26 02:34N 51°55' E 004°15'0 0.0
2016-Aug-26 01:34N 51°55' E 004°15'0 0.0
2016-Aug-26 00:34N 51°55' E 004°15'0 0.0
2016-Aug-25 23:34N 51°55' E 004°15'0 0.0
2016-Aug-25 22:33N 51°55' E 004°15'0 0.0
2016-Aug-25 21:33N 51°55' E 004°15'0 0.0
2016-Aug-25 20:33N 51°55' E 004°15'0 0.0
2016-Aug-25 19:34N 51°55' E 004°15'0 0.0
2016-Aug-25 18:34N 51°55' E 004°15'0 0.0
2016-Aug-25 17:34N 51°55' E 004°15'0 0.0
2016-Aug-25 16:34N 51°55' E 004°15'0 0.0
2016-Aug-25 15:34N 51°55' E 004°15'0 0.5
2016-Aug-25 14:34N 51°55' E 004°15'6 6.0
2016-Aug-25 13:33N 51°58' E 004°07'1 1.0
2016-Aug-25 12:33N 51°58' E 004°05'5 4.5
2016-Aug-25 11:34N 51°58' E 003°58'0 0.1
2016-Aug-25 10:33N 51°58' E 003°58'0 0.0
2016-Aug-25 09:33N 51°58' E 003°58'0 0.0
2016-Aug-25 08:33N 51°58' E 003°58'0 0.2
2016-Aug-25 07:30N 51°59' E 003°58'0 0.1
2016-Aug-25 06:30N 51°58' E 003°58'1 0.6
2016-Aug-25 04:33N 51°59' E 003°59'3 2.6
2016-Aug-25 03:33N 51°58' E 004°03'5 4.8
2016-Aug-25 02:33N 51°57' E 004°10'4 3.4
2016-Aug-25 01:31N 51°55' E 004°15'0 0.0
2016-Aug-25 00:31N 51°55' E 004°15'0 0.0
2016-Aug-24 23:31N 51°55' E 004°15'0 0.0
2016-Aug-24 22:31N 51°55' E 004°15'0 0.0
2016-Aug-24 21:31N 51°55' E 004°15'0 0.0
2016-Aug-24 20:31N 51°55' E 004°15'0 0.0
2016-Aug-24 19:31N 51°55' E 004°15'0 0.0
2016-Aug-24 18:31N 51°55' E 004°15'0 0.0
2016-Aug-24 17:31N 51°55' E 004°15'0 0.0
2016-Aug-24 16:31N 51°55' E 004°15'0 0.0
2016-Aug-24 15:31N 51°55' E 004°15'0 0.0
2016-Aug-24 14:31N 51°55' E 004°15'0 0.0
2016-Aug-24 13:28N 51°55' E 004°15'0 0.0
2016-Aug-24 12:31N 51°55' E 004°15'0 0.0
2016-Aug-24 11:31N 51°55' E 004°15'0 0.0
2016-Aug-24 10:33N 51°55' E 004°15'2 2.4
2016-Aug-24 09:33N 51°54' E 004°18'4 4.2
2016-Aug-24 08:33N 51°54' E 004°25'0 0.0
2016-Aug-24 07:33N 51°54' E 004°25'0 0.0
2016-Aug-24 06:33N 51°54' E 004°25'0 0.0
2016-Aug-24 04:33N 51°54' E 004°25'0 0.0
2016-Aug-24 03:33N 51°54' E 004°25'0 0.0
2016-Aug-24 02:33N 51°54' E 004°25'0 0.0
2016-Aug-24 01:33N 51°54' E 004°25'0 0.0
2016-Aug-24 00:33N 51°54' E 004°25'0 0.0
2016-Aug-23 23:33N 51°54' E 004°25'0 0.0
2016-Aug-23 22:33N 51°54' E 004°25'0 0.0
2016-Aug-23 21:33N 51°54' E 004°25'0 0.0
2016-Aug-23 20:33N 51°54' E 004°25'0 0.0
2016-Aug-23 19:33N 51°54' E 004°25'0 0.0
2016-Aug-23 18:33N 51°54' E 004°25'0 0.0
2016-Aug-23 17:33N 51°54' E 004°25'0 0.0
2016-Aug-23 16:34N 51°54' E 004°25'0 0.0
2016-Aug-23 15:33N 51°54' E 004°25'0 0.0
2016-Aug-23 14:33N 51°54' E 004°25'0 0.0
2016-Aug-23 13:33N 51°54' E 004°25'0 0.0
2016-Aug-23 12:34N 51°54' E 004°25'0 0.0
2016-Aug-23 11:34N 51°54' E 004°25'0 0.0
2016-Aug-23 10:34N 51°54' E 004°25'0 0.0
2016-Aug-23 09:34N 51°54' E 004°25'0 0.0
2016-Aug-23 08:34N 51°54' E 004°25'0 0.0
2016-Aug-23 07:34N 51°54' E 004°25'0 0.0
2016-Aug-23 06:34N 51°54' E 004°25'0 0.0
2016-Aug-23 05:33N 51°54' E 004°25'0 0.0
2016-Aug-23 04:33N 51°54' E 004°25'0 0.0
2016-Aug-23 03:33N 51°54' E 004°25'0 0.0
2016-Aug-23 02:33N 51°54' E 004°25'0 0.0
2016-Aug-23 01:33N 51°54' E 004°25'0 0.0
2016-Aug-23 00:33N 51°54' E 004°25'0 0.0
2016-Aug-22 23:33N 51°54' E 004°25'0 0.0
2016-Aug-22 22:33N 51°54' E 004°25'0 0.0
2016-Aug-22 21:34N 51°54' E 004°25'0 0.0
2016-Aug-22 20:34N 51°54' E 004°25'0 0.0
2016-Aug-22 19:33N 51°54' E 004°25'0 0.0
2016-Aug-22 18:33N 51°54' E 004°25'0 0.0
2016-Aug-22 17:33N 51°54' E 004°25'0 0.0
2016-Aug-22 16:34N 51°54' E 004°25'0 0.0
2016-Aug-22 15:34N 51°54' E 004°25'0 0.0
2016-Aug-22 14:34N 51°54' E 004°25'0 0.0
2016-Aug-22 13:34N 51°54' E 004°25'0 0.0
2016-Aug-22 12:33N 51°54' E 004°25'0 0.0
2016-Aug-22 11:33N 51°54' E 004°25'0 0.0
2016-Aug-22 10:34N 51°54' E 004°25'0 0.0
2016-Aug-22 09:27N 51°54' E 004°25'0 0.4
2016-Aug-22 08:33N 51°54' E 004°24'6 6.0
2016-Aug-22 07:33N 51°55' E 004°15'0 0.2
2016-Aug-22 06:33N 51°55' E 004°15'0 0.0
2016-Aug-22 05:28N 51°55' E 004°15'0 0.0
2016-Aug-22 04:31N 51°55' E 004°15'0 0.0
2016-Aug-22 03:31N 51°55' E 004°15'0 0.0
2016-Aug-22 02:31N 51°55' E 004°15'0 0.0
2016-Aug-22 01:19N 51°55' E 004°15'0 0.0
2016-Aug-22 00:31N 51°55' E 004°15'0 0.0
2016-Aug-21 23:31N 51°55' E 004°15'0 0.0
2016-Aug-21 22:31N 51°55' E 004°15'0 0.0
2016-Aug-21 21:28N 51°55' E 004°15'0 0.0
2016-Aug-21 20:31N 51°55' E 004°15'0 0.0
2016-Aug-21 19:31N 51°55' E 004°15'0 0.0
2016-Aug-21 18:31N 51°55' E 004°15'0 0.0
2016-Aug-21 17:31N 51°55' E 004°15'0 0.0
2016-Aug-21 16:31N 51°55' E 004°15'0 0.0
2016-Aug-21 15:28N 51°55' E 004°15'0 0.0
2016-Aug-21 14:31N 51°55' E 004°15'0 0.0
2016-Aug-21 13:31N 51°55' E 004°15'0 0.0
2016-Aug-21 12:28N 51°55' E 004°15'0 0.0
2016-Aug-21 11:31N 51°55' E 004°15'0 0.0
2016-Aug-21 10:31N 51°55' E 004°15'0 0.0
2016-Aug-21 09:31N 51°55' E 004°15'0 0.0
2016-Aug-21 08:31N 51°55' E 004°15'0 0.0
2016-Aug-21 07:28N 51°55' E 004°15'0 0.0
2016-Aug-21 06:31N 51°55' E 004°15'0 0.0
2016-Aug-21 05:31N 51°55' E 004°15'0 0.0
2016-Aug-21 04:31N 51°55' E 004°15'0 0.0
2016-Aug-21 03:31N 51°55' E 004°15'0 0.0
2016-Aug-21 02:31N 51°55' E 004°15'0 0.0
2016-Aug-21 01:28N 51°55' E 004°15'0 0.0
2016-Aug-21 00:19N 51°55' E 004°15'0 0.0
2016-Aug-20 23:28N 51°55' E 004°15'0 0.0
2016-Aug-20 22:31N 51°55' E 004°15'0 0.0
2016-Aug-20 21:31N 51°55' E 004°15'0 0.0
2016-Aug-20 20:28N 51°55' E 004°15'0 0.0
2016-Aug-20 19:28N 51°55' E 004°15'0 0.0
2016-Aug-20 18:31N 51°55' E 004°15'0 0.0
2016-Aug-20 17:31N 51°55' E 004°15'0 0.0
2016-Aug-20 16:31N 51°55' E 004°15'0 0.0
2016-Aug-20 15:25N 51°55' E 004°15'0 0.0
2016-Aug-20 14:31N 51°55' E 004°15'0 0.0
2016-Aug-20 13:31N 51°55' E 004°15'0 0.0
2016-Aug-20 12:28N 51°55' E 004°15'0 0.0
2016-Aug-20 11:31N 51°55' E 004°15'0 0.0
2016-Aug-20 10:31N 51°55' E 004°15'0 0.0
2016-Aug-20 09:31N 51°55' E 004°15'0 0.0
2016-Aug-20 08:31N 51°55' E 004°15'0 0.0
2016-Aug-20 07:31N 51°55' E 004°15'0 0.0
2016-Aug-20 06:31N 51°55' E 004°15'0 0.0
2016-Aug-20 05:31N 51°55' E 004°15'0 0.0
2016-Aug-20 04:31N 51°55' E 004°15'0 0.0
2016-Aug-20 03:31N 51°55' E 004°15'0 0.0
2016-Aug-20 02:31N 51°55' E 004°15'0 0.0
2016-Aug-20 01:31N 51°55' E 004°15'0 0.0
2016-Aug-20 00:31N 51°55' E 004°15'0 0.0
2016-Aug-19 23:31N 51°55' E 004°15'0 0.0
2016-Aug-19 22:28N 51°55' E 004°15'0 0.0
2016-Aug-19 21:31N 51°55' E 004°15'0 0.0
2016-Aug-19 20:31N 51°55' E 004°15'0 0.0
2016-Aug-19 19:31N 51°55' E 004°15'0 0.0
2016-Aug-19 18:31N 51°55' E 004°15'0 0.0
2016-Aug-19 17:28N 51°55' E 004°15'0 0.0
2016-Aug-19 16:31N 51°55' E 004°15'0 0.0
2016-Aug-19 15:31N 51°55' E 004°15'0 0.0
2016-Aug-19 14:31N 51°55' E 004°15'0 0.0
2016-Aug-19 13:31N 51°55' E 004°15'0 0.0
2016-Aug-19 12:31N 51°55' E 004°15'0 0.0
2016-Aug-19 11:19N 51°55' E 004°15'0 0.0
2016-Aug-19 10:31N 51°55' E 004°15'0 0.0
2016-Aug-19 09:25N 51°55' E 004°15'0 0.0
2016-Aug-19 08:31N 51°55' E 004°15'0 0.0
2016-Aug-19 07:31N 51°55' E 004°15'0 0.0
2016-Aug-19 06:31N 51°55' E 004°15'0 0.0
2016-Aug-19 05:31N 51°55' E 004°15'0 0.0
2016-Aug-19 04:31N 51°55' E 004°15'0 0.0
2016-Aug-19 03:31N 51°55' E 004°15'0 0.0
2016-Aug-19 02:28N 51°55' E 004°15'0 0.0
2016-Aug-19 01:31N 51°55' E 004°15'0 0.0
2016-Aug-19 00:31N 51°55' E 004°15'0 0.0
2016-Aug-18 23:28N 51°55' E 004°15'0 0.0
2016-Aug-18 22:31N 51°55' E 004°15'0 0.0
2016-Aug-18 21:28N 51°55' E 004°15'0 0.0
2016-Aug-18 20:31N 51°55' E 004°15'0 0.0
2016-Aug-18 19:31N 51°55' E 004°15'0 0.0
2016-Aug-18 18:31N 51°55' E 004°15'0 0.0
2016-Aug-18 17:34N 51°55' E 004°15'0 0.0
2016-Aug-18 16:31N 51°55' E 004°15'0 0.0
2016-Aug-18 15:31N 51°55' E 004°15'0 0.0
2016-Aug-18 14:34N 51°55' E 004°15'0 0.0
2016-Aug-18 13:22N 51°55' E 004°15'0 0.0
2016-Aug-18 12:24N 51°55' E 004°15'0 0.0
2016-Aug-18 11:31N 51°55' E 004°15'0 0.0
2016-Aug-18 10:34N 51°55' E 004°15'0 0.0
2016-Aug-18 09:33N 51°55' E 004°15'0 0.0
2016-Aug-18 08:28N 51°55' E 004°15'0 0.0
2016-Aug-18 07:31N 51°55' E 004°15'0 0.0
2016-Aug-18 06:28N 51°55' E 004°15'0 0.0
2016-Aug-18 05:31N 51°55' E 004°15'0 0.0
2016-Aug-18 04:33N 51°55' E 004°15'0 0.0
2016-Aug-18 03:33N 51°55' E 004°15'0 0.0
2016-Aug-18 02:31N 51°55' E 004°15'0 0.0
2016-Aug-18 01:31N 51°55' E 004°15'0 0.0
2016-Aug-18 00:33N 51°55' E 004°15'0 0.0
2016-Aug-17 23:31N 51°55' E 004°15'0 0.0
2016-Aug-17 22:27N 51°55' E 004°15'0 0.0
2016-Aug-17 21:31N 51°55' E 004°15'0 0.0
2016-Aug-17 20:33N 51°55' E 004°15'0 0.0
2016-Aug-17 19:34N 51°55' E 004°15'0 0.0
2016-Aug-17 18:33N 51°55' E 004°15'0 0.0
2016-Aug-17 17:33N 51°55' E 004°15'0 0.0
2016-Aug-17 16:33N 51°55' E 004°15'0 0.0
2016-Aug-17 15:30N 51°55' E 004°15'0 0.0
2016-Aug-17 14:28N 51°55' E 004°15'0 0.0
2016-Aug-17 13:33N 51°55' E 004°15'0 0.0
2016-Aug-17 12:31N 51°55' E 004°15'0 0.0
2016-Aug-17 11:33N 51°55' E 004°15'  
Track history (hours):
 
Tides and Currents Weather Stations Pressure Air Temp Water Temp Dewpoint Dewpoint Depression Visibility Wind Speed Wind Dir Waves Ship Positions

Martine P

Last reported at 2016-Aug-27 10:33 UTC. Time now 2016-Aug-27 11:40 UTC.
Position N 51°55' E 004°15'.

Length 27 m; draft 3 m.

Type: Tug. MMSI: 235091541.

Date/timePositionNaut miles runAvg speedWind from/ knotsBaromVisibWave heightAir tempDewpointWater temp
2016-Aug-27 10:33N 51°55' E 004°15'0 0.0
2016-Aug-27 09:33N 51°55' E 004°15'0 0.0
2016-Aug-27 08:34N 51°55' E 004°15'0 0.0
2016-Aug-27 07:34N 51°55' E 004°15'0 0.0
2016-Aug-27 06:33N 51°55' E 004°15'0 0.0
2016-Aug-27 04:34N 51°55' E 004°15'0 0.0
2016-Aug-27 03:34N 51°55' E 004°15'0 0.0
2016-Aug-27 02:34N 51°55' E 004°15'0 0.0
2016-Aug-27 01:34N 51°55' E 004°15'0 0.0
2016-Aug-27 00:33N 51°55' E 004°15'0 0.0
2016-Aug-26 23:33N 51°55' E 004°15'0 0.0
2016-Aug-26 22:34N 51°55' E 004°15'0 0.0
2016-Aug-26 21:33N 51°55' E 004°15'0 0.0
2016-Aug-26 20:34N 51°55' E 004°15'0 0.0
2016-Aug-26 19:33N 51°55' E 004°15'0 0.0
2016-Aug-26 18:33N 51°55' E 004°15'0 0.0
2016-Aug-26 17:33N 51°55' E 004°15'0 0.0
2016-Aug-26 16:34N 51°55' E 004°15'0 0.0
2016-Aug-26 15:33N 51°55' E 004°15'0 0.0
2016-Aug-26 14:33N 51°55' E 004°15'0 0.0
2016-Aug-26 13:34N 51°55' E 004°15'0 0.0
2016-Aug-26 12:34N 51°55' E 004°15'0 0.0
2016-Aug-26 11:34N 51°55' E 004°15'0 0.0
2016-Aug-26 10:33N 51°55' E 004°15'0 0.0
2016-Aug-26 09:34N 51°55' E 004°15'0 0.0
2016-Aug-26 08:33N 51°55' E 004°15'0 0.0
2016-Aug-26 07:34N 51°55' E 004°15'0 0.0
2016-Aug-26 06:34N 51°55' E 004°15'0 0.0
2016-Aug-26 04:33N 51°55' E 004°15'0 0.0
2016-Aug-26 03:34N 51°55' E 004°15'0 0.0
2016-Aug-26 02:34N 51°55' E 004°15'0 0.0
2016-Aug-26 01:34N 51°55' E 004°15'0 0.0
2016-Aug-26 00:34N 51°55' E 004°15'0 0.0
2016-Aug-25 23:34N 51°55' E 004°15'0 0.0
2016-Aug-25 22:33N 51°55' E 004°15'0 0.0
2016-Aug-25 21:33N 51°55' E 004°15'0 0.0
2016-Aug-25 20:33N 51°55' E 004°15'0 0.0
2016-Aug-25 19:34N 51°55' E 004°15'0 0.0
2016-Aug-25 18:34N 51°55' E 004°15'0 0.0
2016-Aug-25 17:34N 51°55' E 004°15'0 0.0
2016-Aug-25 16:34N 51°55' E 004°15'0 0.0
2016-Aug-25 15:34N 51°55' E 004°15'0 0.5
2016-Aug-25 14:34N 51°55' E 004°15'6 6.0
2016-Aug-25 13:33N 51°58' E 004°07'1 1.0
2016-Aug-25 12:33N 51°58' E 004°05'5 4.5
2016-Aug-25 11:34N 51°58' E 003°58'0 0.1
2016-Aug-25 10:33N 51°58' E 003°58'0 0.0
2016-Aug-25 09:33N 51°58' E 003°58'0 0.0
2016-Aug-25 08:33N 51°58' E 003°58'0 0.2
2016-Aug-25 07:30N 51°59' E 003°58'0 0.1
2016-Aug-25 06:30N 51°58' E 003°58'1 0.6
2016-Aug-25 04:33N 51°59' E 003°59'3 2.6
2016-Aug-25 03:33N 51°58' E 004°03'5 4.8
2016-Aug-25 02:33N 51°57' E 004°10'4 3.4
2016-Aug-25 01:31N 51°55' E 004°15'0 0.0
2016-Aug-25 00:31N 51°55' E 004°15'0 0.0
2016-Aug-24 23:31N 51°55' E 004°15'0 0.0
2016-Aug-24 22:31N 51°55' E 004°15'0 0.0
2016-Aug-24 21:31N 51°55' E 004°15'0 0.0
2016-Aug-24 20:31N 51°55' E 004°15'0 0.0
2016-Aug-24 19:31N 51°55' E 004°15'0 0.0
2016-Aug-24 18:31N 51°55' E 004°15'0 0.0
2016-Aug-24 17:31N 51°55' E 004°15'0 0.0
2016-Aug-24 16:31N 51°55' E 004°15'0 0.0
2016-Aug-24 15:31N 51°55' E 004°15'0 0.0
2016-Aug-24 14:31N 51°55' E 004°15'0 0.0
2016-Aug-24 13:28N 51°55' E 004°15'0 0.0
2016-Aug-24 12:31N 51°55' E 004°15'0 0.0
2016-Aug-24 11:31N 51°55' E 004°15'0 0.0
2016-Aug-24 10:33N 51°55' E 004°15'2 2.4
2016-Aug-24 09:33N 51°54' E 004°18'4 4.2
2016-Aug-24 08:33N 51°54' E 004°25'0 0.0
2016-Aug-24 07:33N 51°54' E 004°25'0 0.0
2016-Aug-24 06:33N 51°54' E 004°25'0 0.0
2016-Aug-24 04:33N 51°54' E 004°25'0 0.0
2016-Aug-24 03:33N 51°54' E 004°25'0 0.0
2016-Aug-24 02:33N 51°54' E 004°25'0 0.0
2016-Aug-24 01:33N 51°54' E 004°25'0 0.0
2016-Aug-24 00:33N 51°54' E 004°25'0 0.0
2016-Aug-23 23:33N 51°54' E 004°25'0 0.0
2016-Aug-23 22:33N 51°54' E 004°25'0 0.0
2016-Aug-23 21:33N 51°54' E 004°25'0 0.0
2016-Aug-23 20:33N 51°54' E 004°25'0 0.0
2016-Aug-23 19:33N 51°54' E 004°25'0 0.0
2016-Aug-23 18:33N 51°54' E 004°25'0 0.0
2016-Aug-23 17:33N 51°54' E 004°25'0 0.0
2016-Aug-23 16:34N 51°54' E 004°25'0 0.0
2016-Aug-23 15:33N 51°54' E 004°25'0 0.0
2016-Aug-23 14:33N 51°54' E 004°25'0 0.0
2016-Aug-23 13:33N 51°54' E 004°25'0 0.0
2016-Aug-23 12:34N 51°54' E 004°25'0 0.0
2016-Aug-23 11:34N 51°54' E 004°25'0 0.0
2016-Aug-23 10:34N 51°54' E 004°25'0 0.0
2016-Aug-23 09:34N 51°54' E 004°25'0 0.0
2016-Aug-23 08:34N 51°54' E 004°25'0 0.0
2016-Aug-23 07:34N 51°54' E 004°25'0 0.0
2016-Aug-23 06:34N 51°54' E 004°25'0 0.0
2016-Aug-23 05:33N 51°54' E 004°25'0 0.0
2016-Aug-23 04:33N 51°54' E 004°25'0 0.0
2016-Aug-23 03:33N 51°54' E 004°25'0 0.0
2016-Aug-23 02:33N 51°54' E 004°25'0 0.0
2016-Aug-23 01:33N 51°54' E 004°25'0 0.0
2016-Aug-23 00:33N 51°54' E 004°25'0 0.0
2016-Aug-22 23:33N 51°54' E 004°25'0 0.0
2016-Aug-22 22:33N 51°54' E 004°25'0 0.0
2016-Aug-22 21:34N 51°54' E 004°25'0 0.0
2016-Aug-22 20:34N 51°54' E 004°25'0 0.0
2016-Aug-22 19:33N 51°54' E 004°25'0 0.0
2016-Aug-22 18:33N 51°54' E 004°25'0 0.0
2016-Aug-22 17:33N 51°54' E 004°25'0 0.0
2016-Aug-22 16:34N 51°54' E 004°25'0 0.0
2016-Aug-22 15:34N 51°54' E 004°25'0 0.0
2016-Aug-22 14:34N 51°54' E 004°25'0 0.0
2016-Aug-22 13:34N 51°54' E 004°25'0 0.0
2016-Aug-22 12:33N 51°54' E 004°25'0 0.0
2016-Aug-22 11:33N 51°54' E 004°25'0 0.0
2016-Aug-22 10:34N 51°54' E 004°25'0 0.0
2016-Aug-22 09:27N 51°54' E 004°25'0 0.4
2016-Aug-22 08:33N 51°54' E 004°24'6 6.0
2016-Aug-22 07:33N 51°55' E 004°15'0 0.2
2016-Aug-22 06:33N 51°55' E 004°15'0 0.0
2016-Aug-22 05:28N 51°55' E 004°15'0 0.0
2016-Aug-22 04:31N 51°55' E 004°15'0 0.0
2016-Aug-22 03:31N 51°55' E 004°15'0 0.0
2016-Aug-22 02:31N 51°55' E 004°15'0 0.0
2016-Aug-22 01:19N 51°55' E 004°15'0 0.0
2016-Aug-22 00:31N 51°55' E 004°15'0 0.0
2016-Aug-21 23:31N 51°55' E 004°15'0 0.0
2016-Aug-21 22:31N 51°55' E 004°15'0 0.0
2016-Aug-21 21:28N 51°55' E 004°15'0 0.0
2016-Aug-21 20:31N 51°55' E 004°15'0 0.0
2016-Aug-21 19:31N 51°55' E 004°15'0 0.0
2016-Aug-21 18:31N 51°55' E 004°15'0 0.0
2016-Aug-21 17:31N 51°55' E 004°15'0 0.0
2016-Aug-21 16:31N 51°55' E 004°15'0 0.0
2016-Aug-21 15:28N 51°55' E 004°15'0 0.0
2016-Aug-21 14:31N 51°55' E 004°15'0 0.0
2016-Aug-21 13:31N 51°55' E 004°15'0 0.0
2016-Aug-21 12:28N 51°55' E 004°15'0 0.0
2016-Aug-21 11:31N 51°55' E 004°15'0 0.0
2016-Aug-21 10:31N 51°55' E 004°15'0 0.0
2016-Aug-21 09:31N 51°55' E 004°15'0 0.0
2016-Aug-21 08:31N 51°55' E 004°15'0 0.0
2016-Aug-21 07:28N 51°55' E 004°15'0 0.0
2016-Aug-21 06:31N 51°55' E 004°15'0 0.0
2016-Aug-21 05:31N 51°55' E 004°15'0 0.0
2016-Aug-21 04:31N 51°55' E 004°15'0 0.0
2016-Aug-21 03:31N 51°55' E 004°15'0 0.0
2016-Aug-21 02:31N 51°55' E 004°15'0 0.0
2016-Aug-21 01:28N 51°55' E 004°15'0 0.0
2016-Aug-21 00:19N 51°55' E 004°15'0 0.0
2016-Aug-20 23:28N 51°55' E 004°15'0 0.0
2016-Aug-20 22:31N 51°55' E 004°15'0 0.0
2016-Aug-20 21:31N 51°55' E 004°15'0 0.0
2016-Aug-20 20:28N 51°55' E 004°15'0 0.0
2016-Aug-20 19:28N 51°55' E 004°15'0 0.0
2016-Aug-20 18:31N 51°55' E 004°15'0 0.0
2016-Aug-20 17:31N 51°55' E 004°15'0 0.0
2016-Aug-20 16:31N 51°55' E 004°15'0 0.0
2016-Aug-20 15:25N 51°55' E 004°15'0 0.0
2016-Aug-20 14:31N 51°55' E 004°15'0 0.0
2016-Aug-20 13:31N 51°55' E 004°15'0 0.0
2016-Aug-20 12:28N 51°55' E 004°15'0 0.0
2016-Aug-20 11:31N 51°55' E 004°15'0 0.0
2016-Aug-20 10:31N 51°55' E 004°15'0 0.0
2016-Aug-20 09:31N 51°55' E 004°15'0 0.0
2016-Aug-20 08:31N 51°55' E 004°15'0 0.0
2016-Aug-20 07:31N 51°55' E 004°15'0 0.0
2016-Aug-20 06:31N 51°55' E 004°15'0 0.0
2016-Aug-20 05:31N 51°55' E 004°15'0 0.0
2016-Aug-20 04:31N 51°55' E 004°15'0 0.0
2016-Aug-20 03:31N 51°55' E 004°15'0 0.0
2016-Aug-20 02:31N 51°55' E 004°15'0 0.0
2016-Aug-20 01:31N 51°55' E 004°15'0 0.0
2016-Aug-20 00:31N 51°55' E 004°15'0 0.0
2016-Aug-19 23:31N 51°55' E 004°15'0 0.0
2016-Aug-19 22:28N 51°55' E 004°15'0 0.0
2016-Aug-19 21:31N 51°55' E 004°15'0 0.0
2016-Aug-19 20:31N 51°55' E 004°15'0 0.0
2016-Aug-19 19:31N 51°55' E 004°15'0 0.0
2016-Aug-19 18:31N 51°55' E 004°15'0 0.0
2016-Aug-19 17:28N 51°55' E 004°15'0 0.0
2016-Aug-19 16:31N 51°55' E 004°15'0 0.0
2016-Aug-19 15:31N 51°55' E 004°15'0 0.0
2016-Aug-19 14:31N 51°55' E 004°15'0 0.0
2016-Aug-19 13:31N 51°55' E 004°15'0 0.0
2016-Aug-19 12:31N 51°55' E 004°15'0 0.0
2016-Aug-19 11:19N 51°55' E 004°15'0 0.0
2016-Aug-19 10:31N 51°55' E 004°15'0 0.0
2016-Aug-19 09:25N 51°55' E 004°15'0 0.0
2016-Aug-19 08:31N 51°55' E 004°15'0 0.0
2016-Aug-19 07:31N 51°55' E 004°15'0 0.0
2016-Aug-19 06:31N 51°55' E 004°15'0 0.0
2016-Aug-19 05:31N 51°55' E 004°15'0 0.0
2016-Aug-19 04:31N 51°55' E 004°15'0 0.0
2016-Aug-19 03:31N 51°55' E 004°15'0 0.0
2016-Aug-19 02:28N 51°55' E 004°15'0 0.0
2016-Aug-19 01:31N 51°55' E 004°15'0 0.0
2016-Aug-19 00:31N 51°55' E 004°15'0 0.0
2016-Aug-18 23:28N 51°55' E 004°15'0 0.0
2016-Aug-18 22:31N 51°55' E 004°15'0 0.0
2016-Aug-18 21:28N 51°55' E 004°15'0 0.0
2016-Aug-18 20:31N 51°55' E 004°15'0 0.0
2016-Aug-18 19:31N 51°55' E 004°15'0 0.0
2016-Aug-18 18:31N 51°55' E 004°15'0 0.0
2016-Aug-18 17:34N 51°55' E 004°15'0 0.0
2016-Aug-18 16:31N 51°55' E 004°15'0 0.0
2016-Aug-18 15:31N 51°55' E 004°15'0 0.0
2016-Aug-18 14:34N 51°55' E 004°15'0 0.0
2016-Aug-18 13:22N 51°55' E 004°15'0 0.0
2016-Aug-18 12:24N 51°55' E 004°15'0 0.0
2016-Aug-18 11:31N 51°55' E 004°15'0 0.0
2016-Aug-18 10:34N 51°55' E 004°15'0 0.0
2016-Aug-18 09:33N 51°55' E 004°15'0 0.0
2016-Aug-18 08:28N 51°55' E 004°15'0 0.0
2016-Aug-18 07:31N 51°55' E 004°15'0 0.0
2016-Aug-18 06:28N 51°55' E 004°15'0 0.0
2016-Aug-18 05:31N 51°55' E 004°15'0 0.0
2016-Aug-18 04:33N 51°55' E 004°15'0 0.0
2016-Aug-18 03:33N 51°55' E 004°15'0 0.0
2016-Aug-18 02:31N 51°55' E 004°15'0 0.0
2016-Aug-18 01:31N 51°55' E 004°15'0 0.0
2016-Aug-18 00:33N 51°55' E 004°15'0 0.0
2016-Aug-17 23:31N 51°55' E 004°15'0 0.0
2016-Aug-17 22:27N 51°55' E 004°15'0 0.0
2016-Aug-17 21:31N 51°55' E 004°15'0 0.0
2016-Aug-17 20:33N 51°55' E 004°15'0 0.0
2016-Aug-17 19:34N 51°55' E 004°15'0 0.0
2016-Aug-17 18:33N 51°55' E 004°15'0 0.0
2016-Aug-17 17:33N 51°55' E 004°15'0 0.0
2016-Aug-17 16:33N 51°55' E 004°15'0 0.0
2016-Aug-17 15:30N 51°55' E 004°15'0 0.0
2016-Aug-17 14:28N 51°55' E 004°15'0 0.0
2016-Aug-17 13:33N 51°55' E 004°15'0 0.0
2016-Aug-17 12:31N 51°55' E 004°15'0 0.0
2016-Aug-17 11:33N 51°55' E 004°15'  

Dump ship's entire track history